Time;durP1;ratioP1;P1;durP2;ratioP2;P2;SDS_P1;SDS_P2;PMS_P1;PMS_P2;Temp;Humidity;BMP_temperature;BMP_pressure;BME280_temperature;BME280_humidity;BME280_pressure;Samples;Min_cycle;Max_cycle;Signal;HPM_P1;HPM_P2
2021/08/29 00:01:41;;;;;;;6.95;5.70;;;13.80;94.00;;;;;;5032242;28;20091;-69
2021/08/29 00:04:06;;;;;;;7.10;5.68;;;13.80;94.10;;;;;;5032199;28;20026;-69
2021/08/29 00:06:32;;;;;;;7.00;5.68;;;13.80;94.10;;;;;;5031190;28;20029;-69
2021/08/29 00:08:57;;;;;;;7.72;5.13;;;13.80;94.10;;;;;;5030537;28;20087;-69
2021/08/29 00:11:24;;;;;;;7.35;5.90;;;13.80;94.10;;;;;;5032217;28;20501;-69
2021/08/29 00:13:49;;;;;;;8.93;5.88;;;13.80;94.00;;;;;;5013240;28;20048;-69
2021/08/29 00:16:15;;;;;;;6.35;5.20;;;13.80;94.00;;;;;;5031269;28;20022;-69
2021/08/29 00:18:40;;;;;;;7.50;5.75;;;13.80;94.10;;;;;;5031888;28;20644;-69
2021/08/29 00:21:06;;;;;;;8.88;6.13;;;13.80;94.20;;;;;;5032054;28;20033;-69
2021/08/29 00:23:32;;;;;;;9.77;5.85;;;13.80;94.20;;;;;;5047248;28;20037;-69
2021/08/29 00:25:57;;;;;;;7.65;6.30;;;13.80;94.20;;;;;;5030401;28;20104;-69
2021/08/29 00:28:23;;;;;;;7.00;5.80;;;13.80;94.20;;;;;;5025589;28;20036;-69
2021/08/29 00:30:48;;;;;;;8.77;6.70;;;13.80;94.30;;;;;;5031290;28;20390;-69
2021/08/29 00:33:14;;;;;;;10.20;6.15;;;13.80;94.20;;;;;;5031738;28;20041;-69
2021/08/29 00:35:39;;;;;;;8.68;6.38;;;13.80;94.10;;;;;;5030782;28;20056;-69
2021/08/29 00:38:05;;;;;;;9.55;5.93;;;13.80;94.20;;;;;;5031744;28;20021;-69
2021/08/29 00:40:30;;;;;;;10.77;7.00;;;13.80;94.30;;;;;;5030731;28;20036;-69
2021/08/29 00:42:56;;;;;;;10.07;6.82;;;13.80;94.40;;;;;;5031414;28;20033;-70
2021/08/29 00:45:22;;;;;;;11.70;6.78;;;13.80;94.30;;;;;;5030272;28;20044;-69
2021/08/29 00:47:49;;;;;;;12.20;7.18;;;13.80;94.30;;;;;;5031060;28;20025;-69
2021/08/29 00:50:16;;;;;;;11.90;8.07;;;13.80;94.30;;;;;;5030496;28;20025;-69
2021/08/29 00:52:42;;;;;;;13.98;8.77;;;13.80;94.50;;;;;;5028109;28;20114;-70
2021/08/29 00:55:10;;;;;;;15.35;9.30;;;13.80;94.20;;;;;;5029906;28;20026;-69
2021/08/29 00:57:42;;;;;;;14.68;9.30;;;13.80;94.20;;;;;;5030580;28;20049;-70
2021/08/29 01:00:09;;;;;;;13.13;9.50;;;13.70;94.30;;;;;;5030776;28;20038;-69
2021/08/29 01:02:35;;;;;;;13.25;9.65;;;13.70;94.20;;;;;;5031270;28;20033;-69
2021/08/29 01:05:07;;;;;;;15.52;9.32;;;13.70;94.20;;;;;;5029923;28;20040;-69
2021/08/29 01:07:50;;;;;;;13.23;9.20;;;13.60;94.30;;;;;;5030735;28;20108;-69
2021/08/29 01:10:22;;;;;;;14.05;9.50;;;13.70;94.50;;;;;;5029839;28;20280;-69
2021/08/29 01:12:50;;;;;;;14.07;9.40;;;13.70;94.50;;;;;;5011512;28;20056;-69
2021/08/29 01:15:20;;;;;;;12.82;8.60;;;13.70;94.40;;;;;;5029190;28;20112;-69
2021/08/29 01:17:48;;;;;;;13.95;8.63;;;13.70;94.50;;;;;;5030662;28;20021;-69
2021/08/29 01:20:35;;;;;;;14.27;9.10;;;13.70;94.50;;;;;;5030453;28;20029;-69
2021/08/29 01:23:02;;;;;;;12.13;8.32;;;13.80;94.60;;;;;;5011239;28;20037;-69
2021/08/29 01:25:33;;;;;;;12.40;9.07;;;13.70;94.50;;;;;;5025995;28;20474;-69
2021/08/29 01:28:14;;;;;;;13.85;9.18;;;13.80;94.60;;;;;;5029390;28;20025;-69
2021/08/29 01:30:44;;;;;;;13.73;8.98;;;13.80;94.70;;;;;;5029064;28;20021;-69
2021/08/29 01:33:11;;;;;;;13.05;8.35;;;13.80;94.60;;;;;;5030696;28;20389;-69
2021/08/29 01:35:38;;;;;;;14.65;8.88;;;13.80;94.60;;;;;;5035736;28;20234;-69
2021/08/29 01:38:06;;;;;;;14.18;9.43;;;13.80;94.60;;;;;;5034288;28;20516;-69
2021/08/29 01:40:34;;;;;;;12.60;9.23;;;13.80;94.80;;;;;;5030420;28;20021;-69
2021/08/29 01:43:00;;;;;;;11.10;8.60;;;13.80;94.60;;;;;;5030211;28;20171;-69
2021/08/29 01:45:27;;;;;;;14.02;9.02;;;13.80;94.60;;;;;;5107129;22;20045;-68
2021/08/29 01:47:57;;;;;;;14.80;9.10;;;13.80;94.60;;;;;;5032232;28;20502;-70
2021/08/29 01:50:24;;;;;;;14.88;9.68;;;13.80;94.70;;;;;;5030058;28;20021;-69
2021/08/29 01:52:49;;;;;;;11.45;9.20;;;13.80;94.70;;;;;;5030881;28;20032;-70
2021/08/29 01:55:15;;;;;;;14.10;9.48;;;13.80;94.70;;;;;;5027305;28;20026;-70
2021/08/29 01:57:41;;;;;;;10.98;8.38;;;13.80;94.70;;;;;;5030372;28;20584;-70
2021/08/29 02:00:07;;;;;;;14.43;8.65;;;13.80;94.70;;;;;;5029680;28;20033;-70
2021/08/29 02:02:33;;;;;;;11.38;7.90;;;13.70;94.70;;;;;;5031272;28;20029;-70
2021/08/29 02:04:59;;;;;;;12.73;7.30;;;13.70;94.70;;;;;;5028748;28;20032;-69
2021/08/29 02:07:39;;;;;;;12.55;8.45;;;13.70;94.80;;;;;;5030648;28;20151;-70
2021/08/29 02:10:08;;;;;;;10.45;8.27;;;13.70;94.90;;;;;;5032554;28;20119;-71
2021/08/29 02:12:41;;;;;;;10.63;7.90;;;13.70;94.90;;;;;;5031144;28;20698;-70
2021/08/29 02:15:21;;;;;;;9.55;7.20;;;13.80;94.90;;;;;;5028180;28;20026;-69
2021/08/29 02:17:49;;;;;;;9.25;6.75;;;13.80;94.90;;;;;;5030495;28;20509;-70
2021/08/29 02:20:20;;;;;;;12.57;7.30;;;13.80;94.90;;;;;;5012668;28;20029;-68
2021/08/29 02:22:46;;;;;;;10.95;7.28;;;13.80;95.00;;;;;;5030340;28;20029;-70
2021/08/29 02:25:12;;;;;;;10.63;7.47;;;13.80;94.90;;;;;;5029100;28;20036;-70
2021/08/29 02:27:40;;;;;;;12.10;7.95;;;13.80;94.90;;;;;;5029537;28;20021;-70
2021/08/29 02:30:08;;;;;;;12.07;7.75;;;13.80;94.90;;;;;;5022897;28;20048;-71
2021/08/29 02:32:41;;;;;;;12.02;8.07;;;13.80;94.90;;;;;;5021271;28;20052;-70
2021/08/29 02:35:08;;;;;;;12.18;8.02;;;13.80;95.00;;;;;;5029755;28;20026;-67
2021/08/29 02:37:36;;;;;;;9.38;7.30;;;13.80;95.00;;;;;;5029342;28;21643;-70
2021/08/29 02:40:04;;;;;;;10.32;8.43;;;13.80;95.00;;;;;;5012165;28;20409;-69
2021/08/29 02:42:30;;;;;;;10.32;8.02;;;13.80;95.00;;;;;;5030060;28;20022;-70
2021/08/29 02:44:58;;;;;;;12.27;8.32;;;13.80;95.00;;;;;;5028554;28;20508;-71
2021/08/29 02:47:24;;;;;;;12.55;8.32;;;13.80;95.00;;;;;;5011840;28;20076;-70
2021/08/29 02:49:52;;;;;;;11.60;7.60;;;13.70;94.90;;;;;;5029907;28;20030;-69
2021/08/29 02:52:19;;;;;;;11.88;7.80;;;13.80;95.00;;;;;;5012583;28;20386;-67
2021/08/29 02:54:45;;;;;;;10.15;7.90;;;13.80;95.10;;;;;;5029241;28;20029;-70
2021/08/29 02:57:15;;;;;;;11.77;7.68;;;13.80;95.10;;;;;;5012697;28;20037;-70
2021/08/29 02:59:41;;;;;;;10.25;7.05;;;13.70;95.10;;;;;;5011640;28;20175;-70
2021/08/29 03:02:12;;;;;;;10.77;6.97;;;13.80;95.10;;;;;;5030337;28;20029;-70
2021/08/29 03:04:38;;;;;;;10.48;7.40;;;13.80;95.20;;;;;;5028994;28;20037;-68
2021/08/29 03:07:04;;;;;;;9.90;6.80;;;13.80;95.20;;;;;;5030008;28;20029;-69
2021/08/29 03:09:33;;;;;;;9.80;7.15;;;13.80;95.20;;;;;;5030235;28;20136;-70
2021/08/29 03:12:05;;;;;;;11.32;7.68;;;13.80;95.20;;;;;;5030885;28;20017;-70
2021/08/29 03:14:33;;;;;;;11.32;7.82;;;13.80;95.20;;;;;;5032592;28;20028;-70
2021/08/29 03:16:59;;;;;;;10.85;7.18;;;13.80;95.10;;;;;;5031499;28;20385;-70
2021/08/29 03:19:25;;;;;;;10.23;6.68;;;13.80;95.20;;;;;;5016030;28;20021;-70
2021/08/29 03:21:51;;;;;;;8.52;6.15;;;13.80;95.20;;;;;;5032165;28;20087;-70
2021/08/29 03:24:16;;;;;;;9.60;6.30;;;13.80;95.20;;;;;;5015965;28;20029;-70
2021/08/29 03:26:43;;;;;;;10.30;7.43;;;13.80;95.30;;;;;;5032219;28;20029;-68
2021/08/29 03:29:09;;;;;;;10.73;7.15;;;13.80;95.20;;;;;;5023227;28;20508;-70
2021/08/29 03:31:35;;;;;;;10.20;7.15;;;13.80;95.20;;;;;;5032591;28;20033;-70
2021/08/29 03:34:03;;;;;;;10.50;7.70;;;13.80;95.20;;;;;;5033323;28;20056;-70
2021/08/29 03:36:31;;;;;;;10.15;7.00;;;13.70;95.20;;;;;;5032542;28;20033;-70
2021/08/29 03:38:59;;;;;;;8.48;6.63;;;13.70;95.20;;;;;;5033482;28;20025;-69
2021/08/29 03:41:27;;;;;;;10.35;7.47;;;13.70;95.20;;;;;;5032666;28;20017;-67
2021/08/29 03:43:53;;;;;;;8.57;6.78;;;13.70;95.20;;;;;;5032778;28;20504;-70
2021/08/29 03:46:20;;;;;;;11.10;7.40;;;13.60;95.20;;;;;;5031858;28;20041;-69
2021/08/29 03:48:46;;;;;;;12.30;7.40;;;13.60;95.30;;;;;;5032652;28;20034;-71
2021/08/29 03:51:14;;;;;;;10.35;7.55;;;13.60;95.30;;;;;;5015208;28;20116;-70
2021/08/29 03:53:40;;;;;;;12.80;8.95;;;13.60;95.40;;;;;;5015237;28;20135;-70
2021/08/29 03:56:07;;;;;;;14.63;8.82;;;13.60;95.30;;;;;;5031936;28;20026;-70
2021/08/29 03:58:38;;;;;;;15.85;9.35;;;13.60;95.30;;;;;;5032030;28;20071;-70
2021/08/29 04:01:04;;;;;;;12.75;8.70;;;13.60;95.50;;;;;;5015311;28;20040;-70
2021/08/29 04:03:30;;;;;;;15.60;9.73;;;13.60;95.40;;;;;;5032607;28;20109;-70
2021/08/29 04:05:59;;;;;;;17.10;10.70;;;13.60;95.50;;;;;;5031503;28;20088;-70
2021/08/29 04:08:35;;;;;;;15.70;9.70;;;13.60;95.50;;;;;;5014496;28;20079;-70
2021/08/29 04:11:02;;;;;;;17.60;10.57;;;13.60;95.60;;;;;;5026773;28;20112;-70
2021/08/29 04:13:30;;;;;;;15.63;10.38;;;13.60;95.50;;;;;;5031917;28;20104;-70
2021/08/29 04:15:56;;;;;;;15.90;9.88;;;13.60;95.50;;;;;;5030657;28;20117;-68
2021/08/29 04:18:23;;;;;;;20.10;10.85;;;13.60;95.50;;;;;;5032458;28;20021;-67
2021/08/29 04:20:50;;;;;;;15.52;10.27;;;13.60;95.50;;;;;;5032924;28;20033;-70
2021/08/29 04:23:16;;;;;;;14.70;9.55;;;13.60;95.50;;;;;;5031580;28;20040;-67
2021/08/29 04:25:42;;;;;;;16.90;10.73;;;13.50;95.50;;;;;;5031508;28;20032;-69
2021/08/29 04:28:08;;;;;;;17.27;10.90;;;13.50;95.50;;;;;;5029881;28;20037;-68
2021/08/29 04:30:34;;;;;;;16.58;10.00;;;13.50;95.60;;;;;;5031853;28;20025;-68
2021/08/29 04:32:59;;;;;;;16.00;10.20;;;13.50;95.60;;;;;;5032200;28;20383;-70
2021/08/29 04:35:25;;;;;;;14.80;9.68;;;13.50;95.60;;;;;;5031090;28;20033;-70
2021/08/29 04:37:51;;;;;;;16.63;10.80;;;13.50;95.70;;;;;;5031908;28;20029;-71
2021/08/29 04:40:18;;;;;;;15.10;9.55;;;13.50;95.90;;;;;;5031949;28;20030;-70
2021/08/29 04:42:43;;;;;;;15.80;9.48;;;13.50;95.80;;;;;;5013755;28;20124;-70
2021/08/29 04:45:10;;;;;;;17.10;9.80;;;13.60;95.80;;;;;;5012205;28;20168;-70
2021/08/29 04:47:35;;;;;;;15.85;10.30;;;13.50;95.70;;;;;;5019445;28;20030;-70
2021/08/29 04:50:01;;;;;;;16.15;9.55;;;13.50;95.80;;;;;;5031921;28;20041;-70
2021/08/29 04:52:27;;;;;;;16.90;9.63;;;13.50;95.80;;;;;;5013985;28;20032;-70
2021/08/29 04:54:52;;;;;;;18.08;9.50;;;13.50;95.80;;;;;;5030180;28;20036;-68
2021/08/29 04:57:18;;;;;;;14.95;9.38;;;13.50;95.80;;;;;;5031756;28;20020;-70
2021/08/29 04:59:43;;;;;;;13.85;8.57;;;13.50;95.80;;;;;;5031855;28;20386;-70
2021/08/29 05:02:09;;;;;;;14.23;8.40;;;13.50;95.80;;;;;;5031373;28;20037;-70
2021/08/29 05:04:35;;;;;;;15.02;8.55;;;13.50;95.90;;;;;;5028570;28;20052;-68
2021/08/29 05:07:01;;;;;;;15.52;8.23;;;13.50;95.90;;;;;;5031200;28;20107;-70
2021/08/29 05:09:27;;;;;;;13.60;8.02;;;13.50;96.10;;;;;;5031368;28;20029;-67
2021/08/29 05:11:52;;;;;;;12.68;8.45;;;13.50;95.90;;;;;;5031184;28;20087;-70
2021/08/29 05:14:18;;;;;;;12.90;8.30;;;13.50;95.90;;;;;;5011953;28;20501;-71
2021/08/29 05:16:43;;;;;;;11.35;8.00;;;13.50;95.90;;;;;;5018131;28;20056;-70
2021/08/29 05:19:09;;;;;;;11.25;7.55;;;13.50;95.90;;;;;;5031218;28;20033;-68
2021/08/29 05:21:34;;;;;;;12.48;7.10;;;13.50;96.00;;;;;;5031339;28;20555;-71
2021/08/29 05:24:00;;;;;;;11.65;7.43;;;13.50;96.00;;;;;;5030763;28;20025;-70
2021/08/29 05:26:26;;;;;;;11.00;7.30;;;13.50;96.00;;;;;;5012639;28;20025;-70
2021/08/29 05:28:51;;;;;;;9.77;7.05;;;13.60;96.10;;;;;;5030511;28;20489;-70
2021/08/29 05:31:17;;;;;;;10.10;6.95;;;13.60;96.00;;;;;;5013031;28;20033;-69
2021/08/29 05:33:42;;;;;;;11.48;7.05;;;13.60;96.00;;;;;;5030722;28;20026;-71
2021/08/29 05:36:08;;;;;;;9.60;6.80;;;13.60;95.90;;;;;;5029964;28;20029;-70
2021/08/29 05:38:33;;;;;;;7.30;6.03;;;13.50;96.00;;;;;;5029796;28;20044;-70
2021/08/29 05:40:59;;;;;;;9.82;6.05;;;13.50;95.90;;;;;;5030079;28;20025;-71
2021/08/29 05:43:24;;;;;;;7.72;5.70;;;13.50;95.90;;;;;;5029236;28;20025;-70
2021/08/29 05:45:50;;;;;;;8.13;6.28;;;13.50;96.00;;;;;;5029115;28;20112;-70
2021/08/29 05:48:15;;;;;;;6.22;5.40;;;13.50;96.00;;;;;;5030167;28;20087;-70
2021/08/29 05:50:41;;;;;;;8.70;5.78;;;13.50;96.00;;;;;;5012081;28;20044;-70
2021/08/29 05:53:07;;;;;;;7.10;5.43;;;13.50;96.00;;;;;;5030796;28;20473;-69
2021/08/29 05:55:32;;;;;;;8.15;5.93;;;13.50;96.10;;;;;;5029814;28;20424;-70
2021/08/29 05:57:58;;;;;;;5.82;4.80;;;13.50;96.00;;;;;;5030385;28;20053;-71
2021/08/29 06:00:23;;;;;;;6.53;4.63;;;13.50;96.00;;;;;;5030166;28;20087;-71
2021/08/29 06:02:49;;;;;;;6.75;5.40;;;13.50;96.00;;;;;;5011760;28;20033;-70
2021/08/29 06:05:14;;;;;;;6.60;5.25;;;13.50;96.00;;;;;;5011487;28;20036;-69
2021/08/29 06:07:40;;;;;;;6.72;4.88;;;13.50;96.00;;;;;;5029034;28;20033;-69
2021/08/29 06:10:06;;;;;;;5.55;4.60;;;13.40;96.00;;;;;;5029791;28;20107;-70
2021/08/29 06:12:31;;;;;;;4.97;4.47;;;13.40;96.00;;;;;;5027120;28;20049;-69
2021/08/29 06:14:57;;;;;;;5.93;4.68;;;13.40;96.00;;;;;;5012352;28;20033;-70
2021/08/29 06:17:23;;;;;;;7.15;4.47;;;13.40;96.10;;;;;;5026483;28;20028;-68
2021/08/29 06:19:48;;;;;;;6.35;4.75;;;13.40;96.00;;;;;;5029774;28;20505;-70
2021/08/29 06:22:14;;;;;;;4.95;4.05;;;13.40;96.00;;;;;;5030422;28;20053;-70
2021/08/29 06:24:39;;;;;;;6.10;4.65;;;13.40;96.10;;;;;;5029662;28;20401;-70
2021/08/29 06:27:05;;;;;;;8.15;4.10;;;13.40;96.10;;;;;;5012560;28;20032;-70
2021/08/29 06:29:31;;;;;;;4.53;3.75;;;13.40;96.20;;;;;;5039897;28;20505;-70
2021/08/29 06:31:56;;;;;;;6.95;4.63;;;13.40;96.20;;;;;;5017287;28;20026;-70
2021/08/29 06:34:22;;;;;;;5.07;4.22;;;13.40;96.20;;;;;;5029844;28;20026;-70
2021/08/29 06:36:48;;;;;;;5.10;3.78;;;13.40;96.20;;;;;;5010350;28;20079;-71
2021/08/29 06:39:14;;;;;;;3.83;3.42;;;13.40;96.20;;;;;;5030310;28;20026;-71
2021/08/29 06:41:40;;;;;;;3.72;3.33;;;13.40;96.20;;;;;;5027743;28;20045;-70
2021/08/29 06:44:06;;;;;;;3.17;2.88;;;13.40;96.60;;;;;;5012200;28;20446;-68
2021/08/29 06:46:31;;;;;;;3.70;2.88;;;13.50;96.40;;;;;;5011323;28;20417;-69
2021/08/29 06:48:57;;;;;;;2.72;2.53;;;13.50;96.30;;;;;;5030191;28;20031;-71
2021/08/29 06:51:23;;;;;;;2.80;2.60;;;13.40;96.20;;;;;;5031007;28;20346;-70
2021/08/29 06:53:48;;;;;;;3.08;2.85;;;13.50;96.30;;;;;;5033168;28;20036;-70
2021/08/29 06:56:14;;;;;;;3.78;2.58;;;13.50;96.30;;;;;;5015887;28;20371;-71
2021/08/29 06:58:40;;;;;;;3.03;2.72;;;13.50;96.30;;;;;;5015503;28;20055;-70
2021/08/29 07:01:05;;;;;;;2.78;2.58;;;13.50;96.30;;;;;;5034244;28;20091;-70
2021/08/29 07:03:31;;;;;;;3.83;2.78;;;13.50;96.20;;;;;;5027292;28;20034;-70
2021/08/29 07:05:57;;;;;;;3.38;3.08;;;13.40;96.20;;;;;;5021233;28;20049;-71
2021/08/29 07:08:22;;;;;;;3.47;3.15;;;13.50;96.20;;;;;;5031838;28;20104;-70
2021/08/29 07:10:48;;;;;;;2.95;2.75;;;13.50;96.30;;;;;;5033212;28;20045;-71
2021/08/29 07:13:13;;;;;;;3.38;3.00;;;13.50;96.30;;;;;;5033915;28;20033;-71
2021/08/29 07:15:39;;;;;;;3.03;2.80;;;13.50;96.40;;;;;;5033041;28;20481;-71
2021/08/29 07:18:05;;;;;;;4.00;3.60;;;13.60;96.40;;;;;;5033273;28;20048;-71
2021/08/29 07:20:30;;;;;;;4.53;3.15;;;13.60;96.30;;;;;;5032918;28;20044;-68
2021/08/29 07:22:56;;;;;;;3.40;3.10;;;13.60;96.30;;;;;;5032788;28;20528;-71
2021/08/29 07:25:21;;;;;;;3.65;3.00;;;13.60;96.30;;;;;;5032954;28;20029;-71
2021/08/29 07:27:47;;;;;;;3.97;3.45;;;13.60;96.30;;;;;;5033127;28;20033;-71
2021/08/29 07:30:12;;;;;;;3.13;2.63;;;13.60;96.30;;;;;;5032284;28;20381;-68
2021/08/29 07:32:38;;;;;;;2.72;2.53;;;13.60;96.30;;;;;;5020761;28;20092;-71
2021/08/29 07:35:05;;;;;;;3.60;3.00;;;13.60;96.30;;;;;;5031436;28;20499;-71
2021/08/29 07:37:31;;;;;;;4.95;3.58;;;13.60;96.30;;;;;;5015126;28;20037;-70
2021/08/29 07:39:56;;;;;;;3.13;2.70;;;13.60;96.30;;;;;;5033221;28;20022;-71
2021/08/29 07:42:22;;;;;;;3.10;2.80;;;13.60;96.30;;;;;;5032882;28;20033;-72
2021/08/29 07:44:49;;;;;;;2.92;2.63;;;13.60;96.30;;;;;;5094148;22;20968;-68
2021/08/29 07:47:15;;;;;;;2.75;2.55;;;13.60;96.30;;;;;;5054281;28;20017;-68
2021/08/29 07:49:40;;;;;;;2.58;2.38;;;13.60;96.30;;;;;;5059517;28;20101;-68
2021/08/29 07:52:06;;;;;;;2.63;2.42;;;13.60;96.30;;;;;;5061694;28;20637;-68
2021/08/29 07:54:32;;;;;;;2.40;2.17;;;13.60;96.30;;;;;;5052519;28;20099;-68
2021/08/29 07:56:57;;;;;;;2.63;2.42;;;13.50;96.30;;;;;;5053612;28;20029;-66
2021/08/29 07:59:23;;;;;;;2.60;2.33;;;13.50;96.30;;;;;;5056014;28;20025;-66
2021/08/29 08:01:48;;;;;;;2.10;1.95;;;13.50;96.20;;;;;;5054845;28;20153;-66
2021/08/29 08:04:14;;;;;;;2.40;2.20;;;13.50;96.30;;;;;;5050948;28;20021;-67
2021/08/29 08:06:40;;;;;;;2.50;2.30;;;13.50;96.30;;;;;;5050823;28;20115;-66
2021/08/29 08:09:05;;;;;;;2.22;2.00;;;13.50;96.40;;;;;;5056668;28;20032;-66
2021/08/29 08:11:31;;;;;;;1.65;1.55;;;13.50;96.40;;;;;;5056600;28;20025;-66
2021/08/29 08:13:56;;;;;;;1.58;1.48;;;13.60;96.40;;;;;;5064089;28;20515;-66
2021/08/29 08:16:22;;;;;;;1.48;1.38;;;13.60;96.40;;;;;;5062283;28;20107;-67
2021/08/29 08:18:48;;;;;;;1.50;1.40;;;13.60;96.40;;;;;;5069469;28;20499;-67
2021/08/29 08:21:13;;;;;;;1.48;1.38;;;13.60;96.40;;;;;;5053005;28;20121;-66
2021/08/29 08:23:39;;;;;;;1.55;1.45;;;13.60;96.40;;;;;;5051667;28;20054;-68
2021/08/29 08:26:07;;;;;;;1.48;1.38;;;13.60;96.40;;;;;;5051613;28;20017;-66
2021/08/29 08:28:33;;;;;;;1.30;1.30;;;13.60;96.40;;;;;;5050447;28;20025;-66
2021/08/29 08:30:58;;;;;;;1.60;1.50;;;13.60;96.30;;;;;;5049345;28;20028;-68
2021/08/29 08:33:24;;;;;;;1.52;1.45;;;13.70;96.40;;;;;;5051356;28;20091;-66
2021/08/29 08:35:49;;;;;;;1.10;1.10;;;13.70;96.60;;;;;;5051579;28;20100;-66
2021/08/29 08:38:15;;;;;;;1.20;1.20;;;13.80;96.50;;;;;;5052354;28;20033;-66
2021/08/29 08:40:42;;;;;;;1.20;1.10;;;13.80;96.40;;;;;;5061098;28;20408;-66
2021/08/29 08:43:09;;;;;;;1.08;1.08;;;13.80;96.30;;;;;;5052735;28;20029;-66
2021/08/29 08:45:36;;;;;;;1.30;1.20;;;13.80;96.40;;;;;;5060745;28;20033;-66
2021/08/29 08:48:04;;;;;;;2.20;2.00;;;13.80;96.30;;;;;;5051173;28;20435;-68
2021/08/29 08:50:33;;;;;;;1.00;0.90;;;13.80;96.30;;;;;;5046697;28;20037;-69
2021/08/29 08:53:00;;;;;;;0.85;0.85;;;13.90;96.20;;;;;;5058084;28;20039;-67
2021/08/29 08:55:27;;;;;;;0.90;0.90;;;13.80;96.20;;;;;;5055531;28;20023;-66
2021/08/29 08:57:53;;;;;;;1.00;1.00;;;13.80;96.20;;;;;;5052208;28;20537;-67
2021/08/29 09:00:19;;;;;;;0.93;0.93;;;13.80;96.20;;;;;;5057267;28;20025;-67
2021/08/29 09:02:46;;;;;;;0.80;0.80;;;13.80;96.10;;;;;;5052897;28;20487;-67
2021/08/29 09:05:12;;;;;;;1.10;1.00;;;13.80;96.10;;;;;;5041759;28;20132;-67
2021/08/29 09:07:37;;;;;;;0.82;0.82;;;13.80;96.00;;;;;;5062520;28;20142;-67
2021/08/29 09:10:04;;;;;;;1.40;1.13;;;13.80;96.10;;;;;;5063225;28;20060;-67
2021/08/29 09:12:32;;;;;;;1.55;1.02;;;13.80;96.10;;;;;;5032789;28;20536;-67
2021/08/29 09:14:58;;;;;;;1.00;1.00;;;13.90;96.10;;;;;;5050521;28;20082;-67
2021/08/29 09:17:26;;;;;;;0.90;0.90;;;13.90;96.00;;;;;;5051264;28;20411;-67
2021/08/29 09:20:14;;;;;;;0.77;0.77;;;13.90;96.10;;;;;;5057297;28;20032;-68
2021/08/29 09:22:41;;;;;;;0.82;0.80;;;13.90;96.40;;;;;;5048514;28;20032;-66
2021/08/29 09:25:15;;;;;;;1.00;0.75;;;13.90;96.00;;;;;;5051511;28;20025;-68
2021/08/29 09:27:46;;;;;;;0.80;0.80;;;13.90;96.00;;;;;;5014065;28;20021;-67
2021/08/29 09:30:14;;;;;;;0.73;0.73;;;13.90;96.00;;;;;;5040013;28;20451;-68
2021/08/29 09:32:53;;;;;;;0.68;0.68;;;13.90;96.10;;;;;;5051594;28;20024;-67
2021/08/29 09:35:20;;;;;;;1.55;1.05;;;14.00;96.00;;;;;;5051946;28;20473;-67
2021/08/29 09:37:45;;;;;;;0.60;0.60;;;14.00;96.00;;;;;;5059737;28;20075;-67
2021/08/29 09:40:16;;;;;;;0.82;0.50;;;14.00;95.90;;;;;;5058806;28;20052;-67
2021/08/29 09:42:43;;;;;;;0.50;0.50;;;14.00;95.80;;;;;;5071487;28;20029;-67
2021/08/29 09:45:09;;;;;;;0.60;0.60;;;14.00;95.90;;;;;;5054275;28;20135;-67
2021/08/29 09:47:35;;;;;;;0.52;0.52;;;14.00;95.90;;;;;;5050950;28;20035;-67
2021/08/29 09:50:08;;;;;;;0.50;0.50;;;14.00;95.70;;;;;;5051021;28;20465;-67
2021/08/29 09:52:34;;;;;;;1.05;0.40;;;14.00;95.80;;;;;;5033062;28;20112;-67
2021/08/29 09:55:00;;;;;;;0.93;0.50;;;14.00;95.70;;;;;;5054296;28;20095;-67
2021/08/29 09:57:25;;;;;;;0.93;0.52;;;14.10;95.70;;;;;;5071026;28;20025;-67
2021/08/29 09:59:52;;;;;;;0.73;0.70;;;14.10;95.70;;;;;;5035922;28;20025;-67
2021/08/29 10:02:20;;;;;;;0.40;0.40;;;14.10;95.60;;;;;;5051193;28;20028;-67
2021/08/29 10:04:46;;;;;;;0.40;0.40;;;14.20;95.70;;;;;;5049916;28;20485;-67
2021/08/29 10:07:17;;;;;;;1.33;0.60;;;14.20;95.70;;;;;;5050760;28;20068;-67
2021/08/29 10:09:45;;;;;;;0.57;0.57;;;14.20;95.60;;;;;;5050864;28;20025;-67
2021/08/29 10:12:12;;;;;;;0.70;0.70;;;14.20;95.60;;;;;;5070845;28;20010;-67
2021/08/29 10:14:39;;;;;;;0.90;0.80;;;14.30;95.60;;;;;;5053691;28;20334;-67
2021/08/29 10:17:06;;;;;;;0.90;0.50;;;14.30;95.70;;;;;;5050729;28;20053;-67
2021/08/29 10:19:33;;;;;;;0.80;0.80;;;14.40;95.70;;;;;;5050685;28;20029;-67
2021/08/29 10:22:00;;;;;;;1.95;0.90;;;14.50;95.70;;;;;;5058987;28;20037;-67
2021/08/29 10:24:31;;;;;;;1.30;0.38;;;14.50;95.60;;;;;;5065424;28;20032;-67
2021/08/29 10:27:02;;;;;;;0.50;0.50;;;14.50;95.60;;;;;;5054770;28;20028;-67
2021/08/29 10:29:34;;;;;;;0.40;0.40;;;14.50;95.50;;;;;;5045133;28;20029;-67
2021/08/29 10:32:27;;;;;;;0.40;0.40;;;14.50;95.40;;;;;;5050627;28;20120;-67
2021/08/29 10:34:53;;;;;;;0.52;0.30;;;14.50;95.50;;;;;;5049962;28;20055;-67
2021/08/29 10:37:20;;;;;;;0.40;0.40;;;14.50;95.50;;;;;;5057934;28;20025;-67
2021/08/29 10:39:49;;;;;;;0.60;0.50;;;14.50;95.60;;;;;;5070557;28;20112;-67
2021/08/29 10:42:14;;;;;;;0.50;0.40;;;14.50;95.60;;;;;;5053717;28;20032;-67
2021/08/29 10:44:41;;;;;;;0.77;0.50;;;14.50;95.50;;;;;;5049879;28;20429;-67
2021/08/29 10:47:07;;;;;;;0.40;0.40;;;14.50;95.60;;;;;;5050529;28;20583;-67
2021/08/29 10:49:36;;;;;;;0.50;0.30;;;14.60;95.60;;;;;;5050464;28;20024;-67
2021/08/29 10:52:04;;;;;;;3.88;2.70;;;14.60;95.60;;;;;;5057698;28;20085;-67
2021/08/29 10:54:30;;;;;;;0.50;0.50;;;14.60;95.60;;;;;;5050048;28;20017;-67
2021/08/29 10:56:55;;;;;;;0.30;0.30;;;14.70;95.50;;;;;;5060889;28;20047;-67
2021/08/29 10:59:23;;;;;;;0.40;0.40;;;14.70;95.50;;;;;;5050176;28;20032;-67
2021/08/29 11:01:52;;;;;;;1.75;0.47;;;14.70;95.60;;;;;;5050376;28;20029;-67
2021/08/29 11:04:17;;;;;;;1.02;0.98;;;14.70;95.70;;;;;;5032596;28;20029;-67
2021/08/29 11:07:08;;;;;;;0.80;0.57;;;14.70;95.50;;;;;;5049896;28;20108;-67
2021/08/29 11:09:37;;;;;;;0.45;0.45;;;14.70;95.50;;;;;;5050388;28;20037;-67
2021/08/29 11:12:12;;;;;;;0.52;0.50;;;14.80;95.50;;;;;;5047553;28;20036;-67
2021/08/29 11:14:37;;;;;;;0.88;0.50;;;14.80;95.50;;;;;;5047935;28;20163;-67
2021/08/29 11:17:20;;;;;;;0.30;0.30;;;14.70;95.50;;;;;;5049993;28;20091;-67
2021/08/29 11:19:51;;;;;;;0.85;0.38;;;14.70;95.40;;;;;;5050309;28;20017;-67
2021/08/29 11:22:23;;;;;;;0.50;0.50;;;14.60;95.40;;;;;;5050094;28;20036;-67
2021/08/29 11:25:28;;;;;;;0.40;0.40;;;14.60;95.50;;;;;;5066135;28;20495;-67
2021/08/29 11:27:56;;;;;;;4.72;3.65;;;14.60;95.50;;;;;;5020200;28;20105;-67
2021/08/29 11:30:35;;;;;;;1.02;0.45;;;14.60;95.50;;;;;;4991636;28;20465;-67
2021/08/29 11:33:03;;;;;;;0.95;0.40;;;14.70;95.60;;;;;;5031970;28;20135;-67
2021/08/29 11:35:32;;;;;;;1.10;0.30;;;14.70;95.60;;;;;;5049251;28;20033;-67
2021/08/29 11:38:24;;;;;;;0.40;0.40;;;14.70;95.70;;;;;;5052510;28;20063;-67
2021/08/29 11:41:09;;;;;;;0.82;0.50;;;14.80;95.70;;;;;;5035778;28;20029;-67
2021/08/29 11:43:42;;;;;;;0.63;0.40;;;14.80;95.60;;;;;;5054488;28;20037;-67
2021/08/29 11:46:15;;;;;;;0.47;0.25;;;14.90;95.50;;;;;;5052336;28;20059;-67
2021/08/29 11:48:56;;;;;;;2.13;0.77;;;14.90;95.40;;;;;;5053684;28;20358;-67
2021/08/29 11:51:37;;;;;;;0.68;0.68;;;14.80;95.30;;;;;;5036588;28;20025;-66
2021/08/29 11:54:07;;;;;;;0.40;0.40;;;14.80;95.50;;;;;;5063477;28;20029;-67
2021/08/29 11:56:34;;;;;;;2.60;0.30;;;14.80;95.60;;;;;;5053195;28;20459;-67
2021/08/29 11:59:02;;;;;;;0.40;0.40;;;14.80;95.60;;;;;;5060135;28;20476;-67
2021/08/29 12:01:32;;;;;;;0.75;0.30;;;14.80;95.60;;;;;;5053499;28;20113;-67
2021/08/29 12:03:59;;;;;;;0.43;0.40;;;14.90;95.70;;;;;;5053201;28;20029;-67
2021/08/29 12:06:33;;;;;;;0.43;0.43;;;14.90;95.70;;;;;;5052188;28;20079;-67
2021/08/29 12:09:21;;;;;;;0.45;0.45;;;14.90;95.60;;;;;;5053012;28;20025;-67
2021/08/29 12:11:47;;;;;;;0.68;0.68;;;14.90;95.60;;;;;;5053025;28;20033;-67
2021/08/29 12:14:15;;;;;;;1.45;0.50;;;14.80;95.40;;;;;;5048751;28;20048;-67
2021/08/29 12:16:50;;;;;;;0.40;0.40;;;14.80;95.60;;;;;;5051037;28;20388;-67
2021/08/29 12:19:23;;;;;;;0.40;0.30;;;14.70;95.70;;;;;;5052859;28;20036;-67
2021/08/29 12:21:49;;;;;;;1.35;1.25;;;14.70;95.70;;;;;;5057207;28;20360;-67
2021/08/29 12:24:24;;;;;;;1.45;1.05;;;14.70;95.70;;;;;;5060313;28;20025;-67
2021/08/29 12:27:00;;;;;;;1.25;0.60;;;14.70;95.80;;;;;;5068865;28;20073;-67
2021/08/29 12:29:25;;;;;;;0.50;0.50;;;14.70;95.80;;;;;;5052179;28;20035;-67
2021/08/29 12:31:51;;;;;;;0.63;0.40;;;14.60;95.80;;;;;;5054702;28;20029;-67
2021/08/29 12:34:26;;;;;;;0.70;0.70;;;14.60;95.80;;;;;;5072589;28;20032;-67
2021/08/29 12:37:10;;;;;;;0.40;0.40;;;14.60;96.00;;;;;;5071748;28;20028;-67
2021/08/29 12:39:36;;;;;;;0.93;0.55;;;14.60;96.00;;;;;;5072431;28;20070;-67
2021/08/29 12:42:19;;;;;;;1.75;0.60;;;14.60;96.00;;;;;;5066196;28;20029;-67
2021/08/29 12:44:45;;;;;;;1.10;0.50;;;14.60;96.20;;;;;;5050790;28;20047;-67
2021/08/29 12:47:11;;;;;;;1.48;0.45;;;14.60;96.20;;;;;;5051897;28;20551;-67